Time;durP1;ratioP1;P1;durP2;ratioP2;P2;SDS_P1;SDS_P2;PMS_P1;PMS_P2;Temp;Humidity;BMP_temperature;BMP_pressure;BME280_temperature;BME280_humidity;BME280_pressure;Samples;Min_cycle;Max_cycle;Signal;HPM_P1;HPM_P2
2023/05/03 00:01:28;;;;;;;11.35;6.88;;;;;;;1.43;100.00;102623.50;10525500;28;20391;-75
2023/05/03 00:06:29;;;;;;;18.25;6.60;;;;;;;1.34;100.00;102621.56;10522472;28;20036;-75
2023/05/03 00:11:29;;;;;;;11.15;6.20;;;;;;;1.30;100.00;102626.38;10519617;28;20036;-75
2023/05/03 00:16:30;;;;;;;8.57;5.72;;;;;;;1.30;100.00;102620.28;10519068;28;20100;-75
2023/05/03 00:21:30;;;;;;;17.80;7.47;;;;;;;1.37;100.00;102625.38;10523959;28;20135;-75
2023/05/03 00:26:32;;;;;;;12.00;5.80;;;;;;;1.30;100.00;102622.88;10524477;28;20074;-75
2023/05/03 00:31:32;;;;;;;14.32;7.55;;;;;;;1.24;100.00;102612.78;10516897;28;20059;-75
2023/05/03 00:36:33;;;;;;;11.57;7.10;;;;;;;1.28;100.00;102612.38;10526792;28;20120;-74
2023/05/03 00:41:33;;;;;;;14.45;7.00;;;;;;;1.22;100.00;102616.84;10523706;28;20040;-75
2023/05/03 00:46:34;;;;;;;11.68;7.00;;;;;;;1.10;100.00;102624.09;10525519;28;20459;-74
2023/05/03 00:51:34;;;;;;;10.27;6.53;;;;;;;1.00;100.00;102623.78;10505741;28;20036;-75
2023/05/03 00:56:35;;;;;;;9.60;7.40;;;;;;;0.92;100.00;102617.78;10474826;28;20090;-75
2023/05/03 01:01:35;;;;;;;15.30;7.60;;;;;;;1.05;100.00;102625.22;10496831;28;20436;-74
2023/05/03 01:06:44;;;;;;;12.85;7.75;;;;;;;1.02;100.00;102623.25;10512352;28;20089;-75
2023/05/03 01:12:03;;;;;;;10.95;7.80;;;;;;;1.03;100.00;102618.97;10502725;28;20039;-75
2023/05/03 01:17:08;;;;;;;12.10;7.30;;;;;;;1.06;100.00;102619.34;10502756;28;20093;-75
2023/05/03 01:22:33;;;;;;;14.50;7.28;;;;;;;1.04;100.00;102617.34;10493832;28;20071;-75
2023/05/03 01:27:35;;;;;;;12.15;7.68;;;;;;;0.97;100.00;102610.53;10508060;28;20044;-75
2023/05/03 01:33:11;;;;;;;12.65;8.50;;;;;;;0.89;100.00;102609.69;10502249;28;20093;-76
2023/05/03 01:38:12;;;;;;;15.07;8.90;;;;;;;0.84;100.00;102610.81;10503430;28;20044;-75
2023/05/03 01:43:12;;;;;;;15.40;9.60;;;;;;;0.80;100.00;102618.94;10493357;28;20488;-75
2023/05/03 01:48:17;;;;;;;14.35;7.95;;;;;;;0.69;100.00;102620.25;10502751;28;20048;-75
2023/05/03 01:53:18;;;;;;;20.88;10.60;;;;;;;0.56;100.00;102628.25;10500354;28;20514;-75
2023/05/03 01:58:19;;;;;;;16.70;9.83;;;;;;;0.46;100.00;102636.53;10505088;28;20365;-75
2023/05/03 02:03:20;;;;;;;20.35;10.25;;;;;;;0.43;100.00;102639.69;10528864;28;20294;-75
2023/05/03 02:08:20;;;;;;;14.80;8.80;;;;;;;0.40;100.00;102644.50;10528338;28;20063;-74
2023/05/03 02:13:21;;;;;;;13.88;9.05;;;;;;;0.31;100.00;102652.78;10527533;28;20068;-74
2023/05/03 02:18:21;;;;;;;20.52;10.88;;;;;;;0.25;100.00;102638.44;10522024;28;20495;-75
2023/05/03 02:23:22;;;;;;;15.35;10.57;;;;;;;0.33;100.00;102643.56;10528949;28;20048;-75
2023/05/03 02:28:22;;;;;;;17.55;9.90;;;;;;;0.32;100.00;102632.38;10527392;28;20128;-75
2023/05/03 02:33:22;;;;;;;19.58;9.82;;;;;;;0.37;100.00;102638.03;10530727;28;20131;-75
2023/05/03 02:38:23;;;;;;;20.75;10.13;;;;;;;0.31;100.00;102639.91;10528649;28;20090;-76
2023/05/03 02:43:23;;;;;;;20.90;11.73;;;;;;;0.25;100.00;102630.72;10529608;28;20135;-75
2023/05/03 02:48:24;;;;;;;15.40;10.25;;;;;;;0.27;100.00;102634.38;10526747;28;20560;-75
2023/05/03 02:53:24;;;;;;;14.30;9.95;;;;;;;0.31;100.00;102624.44;10524862;28;20131;-75
2023/05/03 02:58:25;;;;;;;22.27;12.52;;;;;;;0.33;100.00;102628.13;10528444;28;20090;-74
2023/05/03 03:03:26;;;;;;;17.52;12.63;;;;;;;0.20;100.00;102611.22;10526811;28;20143;-75
2023/05/03 03:08:26;;;;;;;21.42;14.30;;;;;;;0.10;100.00;102604.09;10527622;28;20071;-74
2023/05/03 03:13:27;;;;;;;21.08;13.07;;;;;;;0.11;100.00;102595.63;10525544;28;20371;-74
2023/05/03 03:18:27;;;;;;;23.52;11.30;;;;;;;0.14;100.00;102580.53;10525599;28;20063;-75
2023/05/03 03:23:28;;;;;;;18.00;13.20;;;;;;;0.31;100.00;102578.09;10528811;28;20037;-75
2023/05/03 03:28:29;;;;;;;18.42;11.23;;;;;;;0.27;100.00;102554.53;10526608;28;20052;-74
2023/05/03 03:33:29;;;;;;;22.75;13.07;;;;;;;0.38;100.00;102560.03;10508989;28;20059;-75
2023/05/03 03:38:30;;;;;;;23.52;13.93;;;;;;;0.50;100.00;102570.84;10524013;28;20558;-75
2023/05/03 03:43:31;;;;;;;17.73;12.70;;;;;;;0.40;100.00;102581.72;10503898;28;20119;-75
2023/05/03 03:48:31;;;;;;;22.80;13.40;;;;;;;0.27;100.00;102585.44;10478378;28;20119;-75
2023/05/03 03:53:32;;;;;;;19.70;12.93;;;;;;;0.34;100.00;102583.59;10527661;28;20105;-75
2023/05/03 03:58:32;;;;;;;21.35;14.35;;;;;;;0.22;100.00;102580.53;10509110;28;20116;-75
2023/05/03 04:03:33;;;;;;;20.92;14.55;;;;;;;0.21;100.00;102587.31;10510595;28;20057;-75
2023/05/03 04:08:34;;;;;;;23.80;11.57;;;;;;;0.27;100.00;102585.44;10520382;28;20071;-75
2023/05/03 04:13:34;;;;;;;20.33;14.23;;;;;;;0.32;100.00;102583.44;10506059;28;20127;-74
2023/05/03 04:18:35;;;;;;;20.10;15.00;;;;;;;0.41;100.00;102584.50;10522155;28;20492;-75
2023/05/03 04:23:35;;;;;;;18.98;12.88;;;;;;;0.55;100.00;102595.50;10523235;28;20105;-74
2023/05/03 04:28:37;;;;;;;23.67;14.27;;;;;;;0.64;100.00;102587.88;10516287;28;20123;-75
2023/05/03 04:33:38;;;;;;;18.95;12.85;;;;;;;0.69;100.00;102590.28;10515364;28;20082;-75
2023/05/03 04:38:38;;;;;;;19.75;14.10;;;;;;;0.73;100.00;102600.19;10514104;28;20147;-75
2023/05/03 04:43:39;;;;;;;24.48;16.10;;;;;;;0.97;100.00;102610.53;10520474;28;20114;-75
2023/05/03 04:48:39;;;;;;;24.88;15.98;;;;;;;1.13;100.00;102606.38;10490767;28;20072;-74
2023/05/03 04:53:40;;;;;;;19.50;14.32;;;;;;;1.30;100.00;102617.69;10525299;28;20567;-74
2023/05/03 04:58:41;;;;;;;18.33;13.15;;;;;;;1.42;100.00;102616.50;10505527;28;20124;-74
2023/05/03 05:03:42;;;;;;;20.47;13.30;;;;;;;1.54;100.00;102619.56;10504042;28;20054;-75
2023/05/03 05:08:43;;;;;;;23.10;12.30;;;;;;;1.77;100.00;102626.38;10484394;28;20029;-74
2023/05/03 05:13:43;;;;;;;19.42;12.63;;;;;;;1.93;100.00;102622.91;10471299;28;20036;-74
2023/05/03 05:18:44;;;;;;;108.78;61.47;;;;;;;2.05;100.00;102634.59;10515319;28;20156;-75
2023/05/03 05:23:46;;;;;;;67.57;39.22;;;;;;;2.23;100.00;102639.97;10518937;28;20123;-74
2023/05/03 05:28:46;;;;;;;23.13;13.70;;;;;;;2.49;100.00;102659.25;10521943;28;20040;-74
2023/05/03 05:33:47;;;;;;;12.88;10.65;;;;;;;3.08;100.00;102670.69;10524724;28;20093;-75
2023/05/03 05:38:47;;;;;;;16.10;10.25;;;;;;;4.30;100.00;102667.66;10530771;28;20515;-74
2023/05/03 05:43:48;;;;;;;13.30;8.90;;;;;;;6.64;100.00;102659.00;10532037;28;20174;-75
2023/05/03 05:48:50;;;;;;;10.88;6.60;;;;;;;8.76;100.00;102616.59;10512668;28;20119;-75
2023/05/03 05:53:50;;;;;;;12.20;5.10;;;;;;;10.40;100.00;102633.03;10519835;28;20484;-75
2023/05/03 05:58:51;;;;;;;11.40;5.43;;;;;;;11.88;100.00;102640.34;10528193;28;20051;-75
2023/05/03 06:03:51;;;;;;;9.85;5.53;;;;;;;12.26;100.00;102641.22;10508466;28;20071;-76
2023/05/03 06:08:52;;;;;;;10.32;4.38;;;;;;;12.98;96.90;102640.75;10507808;28;20143;-75
2023/05/03 06:13:52;;;;;;;9.30;4.28;;;;;;;13.77;89.45;102652.00;10503166;28;20504;-77
2023/05/03 06:18:53;;;;;;;9.02;4.50;;;;;;;14.51;79.02;102644.19;10526080;28;20646;-76
2023/05/03 06:23:53;;;;;;;6.10;4.07;;;;;;;14.65;75.65;102651.19;10510723;28;20036;-75
2023/05/03 06:28:54;;;;;;;9.98;4.55;;;;;;;14.31;77.92;102641.25;10530388;28;20135;-76
2023/05/03 06:33:55;;;;;;;6.90;4.65;;;;;;;15.33;73.70;102646.31;10530523;28;20546;-75
2023/05/03 06:38:55;;;;;;;7.15;4.55;;;;;;;15.96;67.82;102637.44;10528750;28;20590;-75
2023/05/03 06:43:56;;;;;;;8.80;4.73;;;;;;;15.44;70.58;102631.09;10529461;28;20119;-77
2023/05/03 06:48:56;;;;;;;11.13;4.83;;;;;;;15.78;65.69;102632.03;10527087;28;20046;-76
2023/05/03 06:54:05;;;;;;;14.00;5.13;;;;;;;15.57;67.02;102627.41;10529817;28;20119;-77
2023/05/03 06:59:08;;;;;;;9.05;5.05;;;;;;;16.05;66.89;102630.00;10501026;28;20430;-76
2023/05/03 07:04:09;;;;;;;11.82;5.13;;;;;;;16.61;63.41;102627.59;10507257;28;20107;-75
2023/05/03 07:09:10;;;;;;;13.85;7.10;;;;;;;17.27;62.66;102624.69;10521724;28;20036;-76
2023/05/03 07:14:10;;;;;;;10.50;4.33;;;;;;;17.15;58.50;102625.03;10526025;28;20043;-75
2023/05/03 07:19:11;;;;;;;9.53;5.73;;;;;;;16.42;59.79;102618.72;10506037;28;20068;-76
2023/05/03 07:24:11;;;;;;;8.53;5.43;;;;;;;17.51;58.47;102615.22;10471760;28;20035;-76
2023/05/03 07:29:12;;;;;;;11.07;5.17;;;;;;;17.60;57.46;102611.25;10528167;28;20138;-76
2023/05/03 07:34:12;;;;;;;12.87;4.40;;;;;;;18.14;55.97;102617.22;10508379;28;20127;-75
2023/05/03 07:39:13;;;;;;;8.13;4.23;;;;;;;18.08;54.44;102606.34;10487237;28;20071;-76
2023/05/03 07:44:13;;;;;;;6.20;4.30;;;;;;;18.00;51.02;102604.25;10491706;28;20130;-75
2023/05/03 07:49:15;;;;;;;10.75;5.25;;;;;;;17.46;53.64;102601.75;10509725;28;20115;-75
2023/05/03 07:54:15;;;;;;;8.60;4.30;;;;;;;17.70;52.40;102611.66;10510146;28;20109;-75
2023/05/03 07:59:15;;;;;;;7.47;4.80;;;;;;;17.89;51.20;102610.78;10527226;28;20480;-76
2023/05/03 08:04:16;;;;;;;9.68;4.30;;;;;;;17.77;53.82;102608.47;10526676;28;20075;-77
2023/05/03 08:09:17;;;;;;;12.95;6.53;;;;;;;18.39;51.93;102605.03;10487521;28;20116;-75
2023/05/03 08:14:18;;;;;;;9.20;5.18;;;;;;;18.64;50.32;102599.00;10493078;28;20032;-76
2023/05/03 08:19:18;;;;;;;8.00;4.07;;;;;;;18.75;47.57;102599.47;10526186;28;20060;-76
2023/05/03 08:24:19;;;;;;;9.47;4.57;;;;;;;18.48;48.82;102586.88;10526674;28;20123;-77
2023/05/03 08:29:20;;;;;;;9.27;5.33;;;;;;;19.22;47.53;102581.94;10526716;28;20105;-77
2023/05/03 08:34:20;;;;;;;8.07;5.67;;;;;;;19.13;45.69;102572.69;10525314;28;20225;-76
2023/05/03 08:39:21;;;;;;;7.43;4.90;;;;;;;18.20;48.04;102578.63;10524273;28;20195;-80
2023/05/03 08:44:22;;;;;;;9.10;5.50;;;;;;;18.49;48.08;102565.72;10506237;28;20060;-80
2023/05/03 08:49:22;;;;;;;13.48;5.70;;;;;;;19.43;44.73;102565.03;10506607;28;20088;-77
2023/05/03 08:54:23;;;;;;;10.20;4.85;;;;;;;19.57;45.44;102567.31;10524092;28;20036;-77
2023/05/03 08:59:26;;;;;;;6.83;4.37;;;;;;;19.76;47.29;102560.91;10519611;28;20479;-75
2023/05/03 09:04:35;;;;;;;7.78;5.30;;;;;;;19.78;44.52;102561.88;10525562;28;20431;-76
2023/05/03 09:09:35;;;;;;;11.68;4.97;;;;;;;20.44;45.43;102558.00;10526698;28;20048;-79
2023/05/03 09:14:43;;;;;;;7.60;4.90;;;;;;;20.51;45.16;102559.13;10533123;28;20036;-79
2023/05/03 09:19:55;;;;;;;10.73;5.85;;;;;;;20.93;42.40;102545.44;10530946;28;20526;-78
2023/05/03 09:24:59;;;;;;;8.38;4.78;;;;;;;19.87;42.26;102546.25;10505661;28;20111;-76
2023/05/03 09:30:16;;;;;;;11.55;5.60;;;;;;;19.81;43.22;102543.38;10490641;28;20043;-78
2023/05/03 09:35:17;;;;;;;7.38;4.90;;;;;;;19.90;43.12;102540.22;10490586;28;20419;-76
2023/05/03 09:40:18;;;;;;;6.35;3.85;;;;;;;20.25;40.94;102538.78;10515553;28;20116;-76
2023/05/03 09:45:22;;;;;;;5.43;3.90;;;;;;;20.14;40.86;102547.25;10509492;28;20029;-77
2023/05/03 09:50:23;;;;;;;11.48;5.22;;;;;;;20.41;44.28;102543.72;10507443;28;20062;-79
2023/05/03 09:55:23;;;;;;;7.75;4.45;;;;;;;20.84;40.78;102531.84;10486820;28;20037;-76
2023/05/03 10:00:24;;;;;;;9.40;4.15;;;;;;;20.72;41.03;102532.31;10473239;28;20114;-74
2023/05/03 10:05:26;;;;;;;9.13;4.17;;;;;;;21.10;38.38;102539.75;10520518;28;20514;-76
2023/05/03 10:10:26;;;;;;;9.20;4.28;;;;;;;20.74;39.95;102532.38;10502932;28;20419;-76
2023/05/03 10:15:27;;;;;;;8.65;3.85;;;;;;;20.86;41.01;102526.56;10487893;28;20111;-76
2023/05/03 10:20:47;;;;;;;6.50;3.63;;;;;;;21.28;40.89;102526.06;10518909;28;20394;-77
2023/05/03 10:26:06;;;;;;;8.15;4.43;;;;;;;20.83;39.35;102522.94;10491267;28;20041;-76
2023/05/03 10:31:45;;;;;;;7.15;4.70;;;;;;;20.44;39.66;102519.88;10486974;28;20489;-78
2023/05/03 10:36:49;;;;;;;9.63;3.67;;;;;;;21.21;40.87;102522.34;10488889;28;20039;-77
2023/05/03 10:42:07;;;;;;;6.97;4.65;;;;;;;21.25;44.01;102508.25;10499233;28;20472;-79
2023/05/03 10:47:16;;;;;;;10.60;5.00;;;;;;;20.57;42.31;102511.47;10525261;28;20119;-75
2023/05/03 10:52:39;;;;;;;7.38;4.28;;;;;;;20.75;40.29;102513.78;10476416;28;20387;-75
2023/05/03 10:57:42;;;;;;;;;;;;;;;21.27;41.07;102510.94;10530361;28;20055;-74
2023/05/03 11:03:18;;;;;;;8.10;4.88;;;;;;;20.14;43.32;102502.94;10530535;28;20295;-73
2023/05/03 11:08:21;;;;;;;8.68;3.83;;;;;;;21.25;43.19;102492.28;10505156;28;20048;-74
2023/05/03 11:13:22;;;;;;;8.52;4.72;;;;;;;20.57;39.25;102500.81;10508952;28;20044;-76
2023/05/03 11:18:25;;;;;;;12.32;5.15;;;;;;;20.18;43.17;102488.91;10527295;28;20112;-77
2023/05/03 11:23:27;;;;;;;9.25;4.25;;;;;;;20.87;40.27;102488.44;10527779;28;20052;-77
2023/05/03 11:28:27;;;;;;;10.38;4.80;;;;;;;20.43;40.31;102494.16;10528713;28;20059;-75
2023/05/03 11:33:34;;;;;;;6.28;3.95;;;;;;;20.04;41.61;102477.81;10527349;28;20144;-76
2023/05/03 11:38:36;;;;;;;6.80;4.18;;;;;;;20.15;40.56;102479.94;10516784;28;20036;-75
2023/05/03 11:43:40;;;;;;;;;;;;;;;20.77;39.57;102477.50;10527524;28;20089;-76
2023/05/03 11:48:43;;;;;;;7.78;4.47;;;;;;;20.84;39.36;102473.31;10524492;28;20375;-80
2023/05/03 11:53:43;;;;;;;8.30;4.35;;;;;;;21.60;40.14;102467.50;10521833;28;20040;-76
2023/05/03 11:58:55;;;;;;;11.68;5.28;;;;;;;21.18;38.80;102466.34;10508301;28;20068;-77
2023/05/03 12:04:00;;;;;;;9.23;4.85;;;;;;;20.88;40.84;102459.25;10488547;28;20358;-79
2023/05/03 12:09:02;;;;;;;10.10;4.78;;;;;;;20.98;42.26;102453.34;10485200;28;20048;-78
2023/05/03 12:14:02;;;;;;;9.23;6.25;;;;;;;21.39;39.21;102449.16;10485791;28;20047;-77
2023/05/03 12:19:03;;;;;;;11.45;5.30;;;;;;;21.36;39.54;102435.78;10484027;28;20115;-81
2023/05/03 12:24:05;;;;;;;9.88;6.68;;;;;;;21.24;39.36;102436.31;10524296;28;20043;-84
2023/05/03 12:29:05;;;;;;;;;;;;;;;20.84;40.88;102433.41;10526883;28;20073;-81
2023/05/03 12:34:06;;;;;;;12.35;7.22;;;;;;;20.50;42.97;102427.91;10526606;28;20387;-77
2023/05/03 12:39:07;;;;;;;8.18;4.60;;;;;;;20.12;41.04;102408.97;10495106;28;20359;-77
2023/05/03 12:44:07;;;;;;;11.18;5.18;;;;;;;20.42;40.18;102408.16;10501512;28;20028;-78
2023/05/03 12:49:08;;;;;;;8.75;5.60;;;;;;;20.55;39.75;102390.81;10508041;28;20032;-76
2023/05/03 12:54:10;;;;;;;11.50;5.63;;;;;;;20.44;38.85;102390.47;10507989;28;20111;-77
2023/05/03 12:59:11;;;;;;;11.25;6.00;;;;;;;20.85;39.98;102386.41;10506967;28;20054;-77
2023/05/03 13:04:13;;;;;;;8.32;5.05;;;;;;;20.74;39.35;102386.06;10507367;28;20064;-78
2023/05/03 13:09:15;;;;;;;8.90;5.25;;;;;;;20.08;40.40;102375.16;10519667;28;20450;-77
2023/05/03 13:14:15;;;;;;;6.80;5.13;;;;;;;20.73;40.77;102369.19;10520343;28;20036;-76
2023/05/03 13:19:16;;;;;;;6.70;4.75;;;;;;;20.54;38.74;102358.00;10523085;28;20043;-76
2023/05/03 13:24:17;;;;;;;12.45;8.02;;;;;;;20.90;39.07;102347.53;10524790;28;20043;-77
2023/05/03 13:29:17;;;;;;;11.80;6.40;;;;;;;20.92;38.73;102332.50;10514591;28;20039;-77
2023/05/03 13:34:18;;;;;;;9.55;5.25;;;;;;;20.39;41.83;102331.84;10489960;28;20044;-76
2023/05/03 13:39:19;;;;;;;14.73;6.97;;;;;;;20.38;39.82;102318.50;10520097;28;20115;-76
2023/05/03 13:44:19;;;;;;;10.70;6.25;;;;;;;20.35;39.65;102315.75;10522045;28;20476;-77
2023/05/03 13:49:20;;;;;;;9.07;5.68;;;;;;;20.02;39.48;102312.13;10522242;28;20032;-76
2023/05/03 13:54:21;;;;;;;9.52;4.68;;;;;;;20.56;41.32;102302.22;10499145;28;20178;-76
2023/05/03 13:59:23;;;;;;;12.10;6.20;;;;;;;20.46;38.81;102290.38;10525115;28;20067;-77
2023/05/03 14:04:24;;;;;;;;;;;;;;;20.38;41.14;102299.91;10488949;28;20123;-77
2023/05/03 14:09:24;;;;;;;7.20;4.53;;;;;;;19.73;39.52;102279.25;10528014;28;19922;-78
2023/05/03 14:14:26;;;;;;;9.73;5.32;;;;;;;19.34;40.34;102284.19;10506593;28;20036;-77
2023/05/03 14:19:33;;;;;;;14.00;7.03;;;;;;;20.03;39.39;102267.81;10484057;28;20047;-77
2023/05/03 14:24:33;;;;;;;12.90;6.38;;;;;;;20.41;41.88;102259.22;10487776;28;20051;-81
2023/05/03 14:29:34;;;;;;;10.77;5.20;;;;;;;20.61;42.47;102259.78;10510865;28;20048;-76
2023/05/03 14:34:34;;;;;;;16.35;6.00;;;;;;;20.44;39.90;102260.19;10518530;28;20140;-77
2023/05/03 14:39:35;;;;;;;16.25;8.95;;;;;;;20.09;41.34;102252.06;10498722;28;20135;-77
2023/05/03 14:44:36;;;;;;;15.48;5.28;;;;;;;19.69;41.68;102235.78;10501881;28;20069;-82
2023/05/03 14:49:40;;;;;;;24.17;6.65;;;;;;;19.17;41.65;102238.53;10498270;28;20135;-76
2023/05/03 14:54:40;;;;;;;7.57;5.53;;;;;;;18.98;41.85;102236.97;10511618;28;20044;-74
2023/05/03 14:59:41;;;;;;;9.23;4.97;;;;;;;18.61;42.10;102228.59;10509618;28;21694;-77
2023/05/03 15:04:42;;;;;;;9.35;5.18;;;;;;;18.72;43.22;102220.13;10502544;28;20122;-77
2023/05/03 15:09:53;;;;;;;7.60;4.80;;;;;;;19.06;42.67;102229.31;10511435;28;20138;-76
2023/05/03 15:14:53;;;;;;;10.48;4.80;;;;;;;18.60;41.92;102232.09;10515952;28;20036;-76
2023/05/03 15:19:54;;;;;;;9.43;6.10;;;;;;;17.92;46.04;102229.53;10514531;28;20115;-77
2023/05/03 15:24:54;;;;;;;7.80;5.65;;;;;;;17.81;45.89;102221.16;10506988;28;20040;-78
2023/05/03 15:29:55;;;;;;;11.50;6.68;;;;;;;16.84;45.71;102226.88;10523572;28;20505;-77
2023/05/03 15:34:56;;;;;;;13.70;6.43;;;;;;;16.13;48.90;102216.66;10525454;28;20059;-77
2023/05/03 15:39:58;;;;;;;12.93;6.60;;;;;;;15.68;49.13;102216.25;10505467;28;20442;-77
2023/05/03 15:45:00;;;;;;;10.18;5.05;;;;;;;15.42;47.96;102207.97;10512214;28;20127;-76
2023/05/03 15:50:01;;;;;;;13.48;5.82;;;;;;;15.44;49.79;102211.59;10517365;28;20046;-76
2023/05/03 15:55:02;;;;;;;8.45;5.55;;;;;;;15.51;49.08;102207.53;10523120;28;20044;-75
2023/05/03 16:00:08;;;;;;;9.50;6.13;;;;;;;15.33;48.08;102199.63;10520761;28;20441;-76
2023/05/03 16:05:09;;;;;;;7.72;5.15;;;;;;;15.21;49.88;102182.34;10523339;28;20064;-76
2023/05/03 16:10:09;;;;;;;16.60;6.43;;;;;;;15.21;48.97;102185.00;10522787;28;20431;-75
2023/05/03 16:15:10;;;;;;;8.30;5.15;;;;;;;15.08;49.99;102193.13;10519909;28;20070;-78
2023/05/03 16:20:11;;;;;;;8.57;5.33;;;;;;;15.02;48.11;102185.81;10523564;28;20052;-76
2023/05/03 16:25:12;;;;;;;11.38;5.82;;;;;;;15.00;49.10;102192.75;10524510;28;20171;-75
2023/05/03 16:30:14;;;;;;;10.43;5.82;;;;;;;14.91;48.21;102185.25;10504473;28;20048;-74
2023/05/03 16:35:14;;;;;;;19.92;5.15;;;;;;;14.84;47.56;102175.22;10523911;28;20052;-78
2023/05/03 16:40:14;;;;;;;8.85;4.55;;;;;;;14.77;51.27;102176.66;10507342;28;20052;-75
2023/05/03 16:45:15;;;;;;;11.00;5.18;;;;;;;14.68;48.35;102171.78;10523584;28;20036;-75
2023/05/03 16:50:17;;;;;;;10.32;5.78;;;;;;;14.60;48.74;102162.56;10521973;28;20075;-76
2023/05/03 16:55:20;;;;;;;9.63;4.77;;;;;;;14.65;48.52;102153.16;10501995;28;20051;-76
2023/05/03 17:00:21;;;;;;;10.60;5.60;;;;;;;14.56;49.80;102157.06;10505268;28;20030;-74
2023/05/03 17:05:23;;;;;;;9.55;5.43;;;;;;;14.54;50.02;102156.97;10516217;28;20123;-74
2023/05/03 17:10:25;;;;;;;11.25;5.57;;;;;;;14.43;49.85;102156.44;10524921;28;20032;-75
2023/05/03 17:15:26;;;;;;;10.38;5.50;;;;;;;14.37;50.94;102158.75;10525773;28;20126;-74
2023/05/03 17:20:26;;;;;;;7.38;5.20;;;;;;;14.18;51.85;102147.25;10504370;28;20040;-77
2023/05/03 17:25:27;;;;;;;9.82;4.68;;;;;;;14.10;52.64;102154.72;10525383;28;20127;-75
2023/05/03 17:30:28;;;;;;;13.18;4.93;;;;;;;13.99;52.65;102144.44;10525147;28;20074;-75
2023/05/03 17:35:28;;;;;;;8.90;5.10;;;;;;;13.91;53.24;102139.66;10514596;28;20043;-76
2023/05/03 17:40:28;;;;;;;11.32;5.93;;;;;;;13.73;53.81;102149.19;10530056;28;20027;-76
2023/05/03 17:45:29;;;;;;;9.05;5.60;;;;;;;13.43;54.59;102137.03;10533177;28;20067;-75
2023/05/03 17:50:29;;;;;;;7.55;4.93;;;;;;;13.21;58.61;102140.16;10521463;28;20491;-76
2023/05/03 17:55:33;;;;;;;10.38;5.95;;;;;;;12.96;58.54;102145.69;10510818;28;20107;-76
2023/05/03 18:00:34;;;;;;;12.85;5.55;;;;;;;12.65;62.12;102138.63;10505347;28;20068;-77
2023/05/03 18:05:35;;;;;;;9.90;7.88;;;;;;;12.40;62.79;102138.06;10491129;28;20115;-77
2023/05/03 18:10:36;;;;;;;15.27;9.13;;;;;;;12.07;65.64;102142.16;10493051;28;20044;-77
2023/05/03 18:15:38;;;;;;;8.70;5.13;;;;;;;11.75;71.94;102142.81;10531105;28;20151;-77
2023/05/03 18:20:38;;;;;;;11.88;4.30;;;;;;;11.42;77.50;102136.34;10529511;28;20032;-77
2023/05/03 18:25:39;;;;;;;12.73;4.82;;;;;;;11.17;83.24;102140.00;10503125;28;20044;-77
2023/05/03 18:30:39;;;;;;;7.90;4.65;;;;;;;10.85;90.01;102144.91;10507599;28;20539;-76
2023/05/03 18:35:40;;;;;;;10.38;3.92;;;;;;;10.56;94.70;102141.22;10528536;28;20042;-77
2023/05/03 18:40:40;;;;;;;7.95;4.32;;;;;;;10.31;100.00;102138.59;10524277;28;20078;-77
2023/05/03 18:45:41;;;;;;;8.50;4.05;;;;;;;10.03;100.00;102144.53;10520974;28;20075;-78
2023/05/03 18:50:42;;;;;;;10.23;4.35;;;;;;;9.86;100.00;102138.09;10502673;28;20094;-76
2023/05/03 18:55:43;;;;;;;9.83;4.43;;;;;;;9.68;100.00;102137.72;10523643;28;20070;-76
2023/05/03 19:00:44;;;;;;;7.85;3.90;;;;;;;9.46;100.00;102137.84;10488253;28;20107;-76
2023/05/03 19:05:44;;;;;;;10.88;5.10;;;;;;;9.25;100.00;102143.31;10505317;28;20033;-75
2023/05/03 19:10:45;;;;;;;11.05;6.28;;;;;;;9.10;100.00;102153.56;10515135;28;20128;-74
2023/05/03 19:15:45;;;;;;;10.75;5.25;;;;;;;8.90;100.00;102142.53;10510079;28;20505;-76
2023/05/03 19:20:46;;;;;;;8.68;5.05;;;;;;;8.70;100.00;102151.47;10501558;28;20078;-75
2023/05/03 19:25:47;;;;;;;9.63;4.85;;;;;;;8.49;100.00;102148.16;10511984;28;20121;-77
2023/05/03 19:30:50;;;;;;;8.18;4.22;;;;;;;8.36;100.00;102156.69;10491553;28;20075;-77
2023/05/03 19:35:51;;;;;;;11.93;4.65;;;;;;;8.26;100.00;102142.03;10483177;28;20028;-78
2023/05/03 19:40:56;;;;;;;10.38;4.57;;;;;;;8.09;100.00;102151.13;10488593;28;20135;-77
2023/05/03 19:45:56;;;;;;;10.57;4.75;;;;;;;7.93;100.00;102147.31;10472407;28;20043;-77
2023/05/03 19:50:57;;;;;;;9.60;5.45;;;;;;;7.83;100.00;102144.78;10499678;28;20084;-78
2023/05/03 19:55:59;;;;;;;8.52;6.20;;;;;;;7.77;100.00;102154.72;10491457;28;20033;-76
2023/05/03 20:00:59;;;;;;;10.17;4.70;;;;;;;7.59;100.00;102143.75;10490110;28;20109;-78
2023/05/03 20:06:00;;;;;;;8.07;5.03;;;;;;;7.49;100.00;102145.59;10509179;28;20491;-76
2023/05/03 20:11:00;;;;;;;10.23;5.22;;;;;;;7.43;100.00;102147.72;10507649;28;20115;-77
2023/05/03 20:16:03;;;;;;;14.65;5.13;;;;;;;7.43;100.00;102137.28;10516414;28;20449;-77
2023/05/03 20:21:04;;;;;;;10.70;4.68;;;;;;;7.35;100.00;102141.88;10508498;28;20383;-78
2023/05/03 20:26:05;;;;;;;11.25;5.35;;;;;;;7.36;100.00;102148.00;10497186;28;20040;-77
2023/05/03 20:31:05;;;;;;;8.80;6.07;;;;;;;7.33;100.00;102146.03;10506659;28;20040;-77
2023/05/03 20:36:06;;;;;;;15.35;6.22;;;;;;;7.26;100.00;102135.91;10485381;28;20202;-78
2023/05/03 20:41:06;;;;;;;11.50;6.25;;;;;;;7.34;100.00;102142.66;10508115;28;20101;-78
2023/05/03 20:46:07;;;;;;;11.27;6.07;;;;;;;7.37;100.00;102147.22;10504415;28;20143;-79
2023/05/03 20:51:08;;;;;;;10.77;5.43;;;;;;;7.31;100.00;102146.72;10465857;28;20119;-79
2023/05/03 20:56:08;;;;;;;12.68;4.95;;;;;;;7.13;100.00;102143.50;10495336;28;20459;-79
2023/05/03 21:01:09;;;;;;;11.35;5.30;;;;;;;6.99;100.00;102126.75;10508689;28;20126;-79
2023/05/03 21:06:09;;;;;;;11.40;6.07;;;;;;;7.01;100.00;102139.09;10489901;28;20137;-79
2023/05/03 21:11:10;;;;;;;9.73;5.50;;;;;;;7.03;100.00;102128.84;10503874;28;20115;-79
2023/05/03 21:16:10;;;;;;;12.95;5.93;;;;;;;7.24;100.00;102123.56;10513845;28;20126;-79
2023/05/03 21:21:11;;;;;;;11.02;6.57;;;;;;;7.31;100.00;102124.19;10510443;28;20502;-78
2023/05/03 21:26:11;;;;;;;10.32;6.07;;;;;;;7.16;100.00;102115.13;10506604;28;20155;-79
2023/05/03 21:31:12;;;;;;;9.75;5.63;;;;;;;7.11;100.00;102117.38;10512181;28;20097;-78
2023/05/03 21:36:12;;;;;;;8.85;5.00;;;;;;;7.18;100.00;102116.16;10512299;28;20123;-78
2023/05/03 21:41:13;;;;;;;12.60;5.82;;;;;;;7.16;100.00;102107.31;10508647;28;20115;-79
2023/05/03 21:46:13;;;;;;;8.73;5.55;;;;;;;7.19;100.00;102102.34;10525029;28;20077;-79
2023/05/03 21:51:18;;;;;;;12.50;6.85;;;;;;;7.09;100.00;102099.78;10501318;28;20475;-81
2023/05/03 21:56:18;;;;;;;13.13;7.53;;;;;;;6.94;100.00;102096.84;10523578;28;20044;-79
2023/05/03 22:01:20;;;;;;;19.40;6.57;;;;;;;7.00;100.00;102084.34;10500713;28;20127;-78
2023/05/03 22:06:21;;;;;;;11.63;6.00;;;;;;;6.98;100.00;102083.31;10492297;28;20040;-79
2023/05/03 22:11:21;;;;;;;15.88;7.63;;;;;;;6.84;100.00;102072.66;10512434;28;20122;-79
2023/05/03 22:16:22;;;;;;;13.40;8.93;;;;;;;6.78;100.00;102076.44;10516985;28;20119;-78
2023/05/03 22:21:22;;;;;;;11.88;6.80;;;;;;;6.76;100.00;102072.03;10512593;28;20586;-78
2023/05/03 22:26:23;;;;;;;10.68;6.60;;;;;;;6.70;100.00;102071.50;10522242;28;20046;-80
2023/05/03 22:31:25;;;;;;;13.15;6.60;;;;;;;6.65;100.00;102070.22;10530153;28;20094;-79
2023/05/03 22:36:25;;;;;;;12.43;6.03;;;;;;;6.63;100.00;102057.88;10501459;28;20066;-79
2023/05/03 22:41:26;;;;;;;11.20;6.88;;;;;;;6.67;100.00;102059.97;10494050;28;20044;-79
2023/05/03 22:46:27;;;;;;;17.40;7.78;;;;;;;6.63;100.00;102058.78;10529978;28;20059;-80
2023/05/03 22:51:28;;;;;;;14.00;7.75;;;;;;;6.58;100.00;102049.69;10530545;28;20388;-82
2023/05/03 22:56:28;;;;;;;13.40;6.47;;;;;;;6.51;100.00;102058.69;10530981;28;20120;-78